createdAt,value
2019-03-25T00:00:39.892Z,14.38
2019-03-25T00:03:08.363Z,13.13
2019-03-25T00:05:35.025Z,16.05
2019-03-25T00:08:01.683Z,19.10
2019-03-25T00:10:28.423Z,16.30
2019-03-25T00:12:55.074Z,14.90
2019-03-25T00:15:21.807Z,15.55
2019-03-25T00:17:48.520Z,13.78
2019-03-25T00:20:15.169Z,15.70
2019-03-25T00:22:41.909Z,17.40
2019-03-25T00:25:08.589Z,20.35
2019-03-25T00:27:35.296Z,13.68
2019-03-25T00:30:02.009Z,18.17
2019-03-25T00:32:29.846Z,15.45
2019-03-25T00:34:56.443Z,14.00
2019-03-25T00:37:23.143Z,17.50
2019-03-25T00:39:49.896Z,15.23
2019-03-25T00:42:16.651Z,14.23
2019-03-25T00:44:43.339Z,15.23
2019-03-25T00:47:10.074Z,18.75
2019-03-25T00:49:36.714Z,16.20
2019-03-25T00:52:03.392Z,15.28
2019-03-25T00:54:30.123Z,15.32
2019-03-25T00:56:56.728Z,14.13
2019-03-25T00:59:23.361Z,15.35
2019-03-25T01:01:50.060Z,17.92
2019-03-25T01:04:16.686Z,15.28
2019-03-25T01:06:43.311Z,17.73
2019-03-25T01:09:09.984Z,14.85
2019-03-25T01:11:36.608Z,15.10
2019-03-25T01:14:03.249Z,12.18
2019-03-25T01:16:29.947Z,16.00
2019-03-25T01:18:56.570Z,14.78
2019-03-25T01:21:23.195Z,18.40
2019-03-25T01:23:49.887Z,16.57
2019-03-25T01:26:16.590Z,16.35
2019-03-25T01:28:43.349Z,18.70
2019-03-25T01:31:10.068Z,20.40
2019-03-25T01:33:36.678Z,20.27
2019-03-25T01:36:03.357Z,21.40
2019-03-25T01:38:30.053Z,20.60
2019-03-25T01:40:57.633Z,22.32
2019-03-25T01:43:24.343Z,22.55
2019-03-25T01:45:51.071Z,23.57
2019-03-25T01:48:17.680Z,22.15
2019-03-25T01:50:44.381Z,22.87
2019-03-25T01:53:11.087Z,21.07
2019-03-25T01:55:37.754Z,23.65
2019-03-25T01:58:04.457Z,25.00
2019-03-25T02:00:31.139Z,24.32
2019-03-25T02:02:57.916Z,22.65
2019-03-25T02:05:24.555Z,22.80
2019-03-25T02:07:51.275Z,19.30
2019-03-25T02:10:18.025Z,21.52
2019-03-25T02:12:44.714Z,22.27
2019-03-25T02:15:14.233Z,26.48
2019-03-25T02:17:41.014Z,24.32
2019-03-25T02:20:07.986Z,22.67
2019-03-25T02:22:34.783Z,24.27
2019-03-25T02:25:01.929Z,28.65
2019-03-25T02:27:28.557Z,24.92
2019-03-25T02:29:55.376Z,19.82
2019-03-25T02:32:22.030Z,20.48
2019-03-25T02:34:48.698Z,22.60
2019-03-25T02:37:15.499Z,19.02
2019-03-25T02:39:42.123Z,21.35
2019-03-25T02:42:08.955Z,21.23
2019-03-25T02:44:35.645Z,21.90
2019-03-25T02:47:02.355Z,20.97
2019-03-25T02:49:29.090Z,22.22
2019-03-25T02:51:55.874Z,22.37
2019-03-25T02:54:22.531Z,23.02
2019-03-25T02:56:49.220Z,24.87
2019-03-25T02:59:15.895Z,21.57
2019-03-25T03:01:42.655Z,23.32
2019-03-25T03:04:09.363Z,24.15
2019-03-25T03:06:36.097Z,23.15
2019-03-25T03:09:05.317Z,24.27
2019-03-25T03:11:33.020Z,25.70
2019-03-25T03:13:59.724Z,23.22
2019-03-25T03:16:26.453Z,25.43
2019-03-25T03:18:53.183Z,21.55
2019-03-25T03:21:19.905Z,22.95
2019-03-25T03:23:46.532Z,23.22
2019-03-25T03:26:13.265Z,25.72
2019-03-25T03:28:39.960Z,22.42
2019-03-25T03:31:06.765Z,21.02
2019-03-25T03:33:33.609Z,23.73
2019-03-25T03:36:01.329Z,22.45
2019-03-25T03:38:27.961Z,22.73
2019-03-25T03:40:54.728Z,25.20
2019-03-25T03:43:21.516Z,23.60
2019-03-25T03:45:48.258Z,23.67
2019-03-25T03:48:14.970Z,22.22
2019-03-25T03:50:41.770Z,20.80
2019-03-25T03:53:08.603Z,21.23
2019-03-25T03:55:37.880Z,21.52
2019-03-25T03:58:06.678Z,22.60
2019-03-25T04:00:33.709Z,28.27
2019-03-25T04:03:00.391Z,22.22
2019-03-25T04:05:27.429Z,22.40
2019-03-25T04:07:54.040Z,20.97
2019-03-25T04:10:20.759Z,26.80
2019-03-25T04:12:47.447Z,21.23
2019-03-25T04:15:23.774Z,23.10
2019-03-25T04:17:50.420Z,21.17
2019-03-25T04:20:17.143Z,21.93
2019-03-25T04:22:43.750Z,21.50
2019-03-25T04:25:10.446Z,21.33
2019-03-25T04:27:37.147Z,18.60
2019-03-25T04:30:04.386Z,22.67
2019-03-25T04:32:31.235Z,22.67
2019-03-25T04:34:58.101Z,28.52
2019-03-25T04:37:24.869Z,22.32
2019-03-25T04:39:51.664Z,20.95
2019-03-25T04:42:18.401Z,29.80
2019-03-25T04:44:46.059Z,24.90
2019-03-25T04:47:12.796Z,21.25
2019-03-25T04:49:39.648Z,19.50
2019-03-25T04:52:06.275Z,24.18
2019-03-25T04:54:33.027Z,28.20
2019-03-25T04:56:59.761Z,28.87
2019-03-25T04:59:26.499Z,26.62
2019-03-25T05:01:53.243Z,38.10
2019-03-25T05:04:21.100Z,39.27
2019-03-25T05:06:47.736Z,34.65
2019-03-25T05:09:14.585Z,33.67
2019-03-25T05:11:41.331Z,41.65
2019-03-25T05:14:08.167Z,32.20
2019-03-25T05:16:34.900Z,39.42
2019-03-25T05:19:01.747Z,34.23
2019-03-25T05:21:28.487Z,30.40
2019-03-25T05:23:55.219Z,27.10
2019-03-25T05:26:21.898Z,28.87
2019-03-25T05:28:48.703Z,32.25
2019-03-25T05:31:15.436Z,33.35
2019-03-25T05:33:42.288Z,33.55
2019-03-25T05:36:09.027Z,32.67
2019-03-25T05:38:35.671Z,30.70
2019-03-25T05:41:02.982Z,31.52
2019-03-25T05:43:29.654Z,34.10
2019-03-25T05:45:57.309Z,33.85
2019-03-25T05:48:24.053Z,36.40
2019-03-25T05:50:50.692Z,34.80
2019-03-25T05:53:17.431Z,32.60
2019-03-25T05:55:44.170Z,32.35
2019-03-25T05:58:10.800Z,35.17
2019-03-25T06:00:38.365Z,33.85
2019-03-25T06:03:05.105Z,38.08
2019-03-25T06:05:31.845Z,35.75
2019-03-25T06:07:58.586Z,31.52
2019-03-25T06:10:25.327Z,35.10
2019-03-25T06:12:52.065Z,32.73
2019-03-25T06:15:18.797Z,31.93
2019-03-25T06:17:45.639Z,33.28
2019-03-25T06:20:12.583Z,33.38
2019-03-25T06:22:39.320Z,25.60
2019-03-25T06:25:06.644Z,32.98
2019-03-25T06:27:33.322Z,34.98
2019-03-25T06:30:00.061Z,31.95
2019-03-25T06:32:26.790Z,31.45
2019-03-25T06:34:53.394Z,31.52
2019-03-25T06:37:20.064Z,27.15
2019-03-25T06:39:46.907Z,28.47
2019-03-25T06:42:13.756Z,27.07
2019-03-25T06:44:40.487Z,31.12
2019-03-25T06:47:07.266Z,37.93
2019-03-25T06:49:34.066Z,36.05
2019-03-25T06:52:00.917Z,38.33
2019-03-25T06:54:27.766Z,42.58
2019-03-25T06:56:54.497Z,42.45
2019-03-25T06:59:21.167Z,33.45
2019-03-25T07:01:47.869Z,33.10
2019-03-25T07:04:14.647Z,30.55
2019-03-25T07:06:41.446Z,32.98
2019-03-25T07:09:08.165Z,26.93
2019-03-25T07:11:35.099Z,25.35
2019-03-25T07:14:01.728Z,37.98
2019-03-25T07:16:28.515Z,31.73
2019-03-25T07:18:55.153Z,28.73
2019-03-25T07:21:21.787Z,27.75
2019-03-25T07:23:48.539Z,25.25
2019-03-25T07:26:15.271Z,20.43
2019-03-25T07:28:41.882Z,23.75
2019-03-25T07:31:08.648Z,25.08
2019-03-25T07:33:35.276Z,22.22
2019-03-25T07:36:02.023Z,22.60
2019-03-25T07:38:28.763Z,24.40
2019-03-25T07:40:55.394Z,24.85
2019-03-25T07:43:22.030Z,26.15
2019-03-25T07:45:51.395Z,25.57
2019-03-25T07:48:18.480Z,24.10
2019-03-25T07:50:45.217Z,24.25
2019-03-25T07:53:11.927Z,21.52
2019-03-25T07:55:38.545Z,24.50
2019-03-25T07:58:05.279Z,22.02
2019-03-25T08:00:31.965Z,22.25
2019-03-25T08:02:59.937Z,26.70
2019-03-25T08:05:26.706Z,27.20
2019-03-25T08:07:53.431Z,27.85
2019-03-25T08:10:31.945Z,28.83
2019-03-25T08:12:59.862Z,30.70
2019-03-25T08:15:26.713Z,25.02
2019-03-25T08:17:53.496Z,25.35
2019-03-25T08:20:20.336Z,25.80
2019-03-25T08:22:47.015Z,26.00
2019-03-25T08:25:13.758Z,26.73
2019-03-25T08:27:40.426Z,27.45
2019-03-25T08:30:08.721Z,22.67
2019-03-25T08:32:35.978Z,30.75
2019-03-25T08:35:04.511Z,27.48
2019-03-25T08:37:31.291Z,24.85
2019-03-25T08:39:57.954Z,24.57
2019-03-25T08:42:24.673Z,26.37
2019-03-25T08:44:51.387Z,24.87
2019-03-25T08:47:18.017Z,21.77
2019-03-25T08:49:45.534Z,27.27
2019-03-25T08:52:12.522Z,26.82
2019-03-25T08:54:39.182Z,31.52
2019-03-25T08:57:05.865Z,29.18
2019-03-25T08:59:32.567Z,29.25
2019-03-25T09:01:59.210Z,27.17
2019-03-25T09:04:25.887Z,25.70
2019-03-25T09:06:53.598Z,23.83
2019-03-25T09:09:20.335Z,31.12
2019-03-25T09:11:47.133Z,31.27
2019-03-25T09:14:13.857Z,26.77
2019-03-25T09:16:40.483Z,25.88
2019-03-25T09:19:07.147Z,35.95
2019-03-25T09:21:33.847Z,30.35
2019-03-25T09:24:00.658Z,34.05
2019-03-25T09:26:27.364Z,31.60
2019-03-25T09:28:54.082Z,43.73
2019-03-25T09:31:20.791Z,35.83
2019-03-25T09:33:47.554Z,31.23
2019-03-25T09:36:15.130Z,33.92
2019-03-25T09:38:41.867Z,26.42
2019-03-25T09:41:08.863Z,23.42
2019-03-25T09:43:35.683Z,30.52
2019-03-25T09:46:02.413Z,21.65
2019-03-25T09:48:29.085Z,27.87
2019-03-25T09:50:55.865Z,22.40
2019-03-25T09:53:22.511Z,19.12
2019-03-25T09:55:49.258Z,19.65
2019-03-25T09:58:16.034Z,18.60
2019-03-25T10:00:42.674Z,20.97
2019-03-25T10:03:09.320Z,24.77
2019-03-25T10:05:36.065Z,20.30
2019-03-25T10:08:02.686Z,19.42
2019-03-25T10:10:29.382Z,23.12
2019-03-25T10:12:56.884Z,24.25
2019-03-25T10:15:23.770Z,22.75
2019-03-25T10:17:50.406Z,22.62
2019-03-25T10:20:17.151Z,23.18
2019-03-25T10:22:43.811Z,25.57
2019-03-25T10:25:11.575Z,24.18
2019-03-25T10:27:38.320Z,26.82
2019-03-25T10:30:09.598Z,23.40
2019-03-25T10:32:36.332Z,27.30
2019-03-25T10:35:04.515Z,30.70
2019-03-25T10:37:31.119Z,23.02
2019-03-25T10:39:57.837Z,29.75
2019-03-25T10:42:24.627Z,28.47
2019-03-25T10:44:52.326Z,28.45
2019-03-25T10:47:19.065Z,31.35
2019-03-25T10:49:45.804Z,26.07
2019-03-25T10:52:13.513Z,30.08
2019-03-25T10:54:40.184Z,40.00
2019-03-25T10:57:06.926Z,34.75
2019-03-25T10:59:33.610Z,35.65
2019-03-25T11:02:00.271Z,31.82
2019-03-25T11:04:26.983Z,28.85
2019-03-25T11:06:53.631Z,31.42
2019-03-25T11:09:20.322Z,33.20
2019-03-25T11:11:47.015Z,35.70
2019-03-25T11:14:13.650Z,32.75
2019-03-25T11:16:40.317Z,36.05
2019-03-25T11:19:07.051Z,32.55
2019-03-25T11:21:33.681Z,34.60
2019-03-25T11:24:00.358Z,31.75
2019-03-25T11:26:27.087Z,29.82
2019-03-25T11:28:54.245Z,30.15
2019-03-25T11:31:20.939Z,32.53
2019-03-25T11:33:47.651Z,35.75
2019-03-25T11:36:14.687Z,31.70
2019-03-25T11:38:41.409Z,30.27
2019-03-25T11:41:08.119Z,33.08
2019-03-25T11:43:34.737Z,30.25
2019-03-25T11:46:01.435Z,34.43
2019-03-25T11:48:28.143Z,31.55
2019-03-25T11:50:54.962Z,32.40
2019-03-25T11:53:21.705Z,33.50
2019-03-25T11:55:48.447Z,33.78
2019-03-25T11:58:15.047Z,34.13
2019-03-25T12:00:41.687Z,33.92
2019-03-25T12:03:08.425Z,34.05
2019-03-25T12:05:35.055Z,32.88
2019-03-25T12:08:02.656Z,32.00
2019-03-25T12:10:29.353Z,36.03
2019-03-25T12:12:55.982Z,32.28
2019-03-25T12:15:22.588Z,35.15
2019-03-25T12:17:49.302Z,32.58
2019-03-25T12:20:15.907Z,36.60
2019-03-25T12:22:42.581Z,34.20
2019-03-25T12:25:09.475Z,32.20
2019-03-25T12:27:36.094Z,35.75
2019-03-25T12:30:05.114Z,34.98
2019-03-25T12:32:31.779Z,34.20
2019-03-25T12:34:58.488Z,35.03
2019-03-25T12:37:25.146Z,37.20
2019-03-25T12:39:51.889Z,35.55
2019-03-25T12:42:18.522Z,38.28
2019-03-25T12:44:45.226Z,41.45
2019-03-25T12:47:11.914Z,35.33
2019-03-25T12:49:38.578Z,34.85
2019-03-25T12:52:05.213Z,32.50
2019-03-25T12:54:32.063Z,34.13
2019-03-25T12:56:58.780Z,35.88
2019-03-25T12:59:25.488Z,35.92
2019-03-25T13:01:53.368Z,34.67
2019-03-25T13:04:20.258Z,34.67
2019-03-25T13:06:46.999Z,38.45
2019-03-25T13:09:13.678Z,34.75
2019-03-25T13:11:40.446Z,35.80
2019-03-25T13:14:07.150Z,34.55
2019-03-25T13:16:33.870Z,36.53
2019-03-25T13:19:00.472Z,36.48
2019-03-25T13:21:27.164Z,37.42
2019-03-25T13:23:53.869Z,41.35
2019-03-25T13:26:20.593Z,35.05
2019-03-25T13:28:47.295Z,36.73
2019-03-25T13:31:14.003Z,37.40
2019-03-25T13:33:40.658Z,35.75
2019-03-25T13:36:07.394Z,37.08
2019-03-25T13:38:34.131Z,37.45
2019-03-25T13:41:00.759Z,33.58
2019-03-25T13:43:27.362Z,36.30
2019-03-25T13:46:04.801Z,42.50
2019-03-25T13:48:22.567Z,32.03
2019-03-25T13:50:49.197Z,36.63
2019-03-25T13:53:15.986Z,33.80
2019-03-25T13:55:42.618Z,33.48
2019-03-25T13:58:09.293Z,31.95
2019-03-25T14:00:37.096Z,34.60
2019-03-25T14:03:03.722Z,31.62
2019-03-25T14:05:30.354Z,34.85
2019-03-25T14:07:57.044Z,37.03
2019-03-25T14:10:23.747Z,32.88
2019-03-25T14:12:51.960Z,40.92
2019-03-25T14:15:18.934Z,33.28
2019-03-25T14:17:45.570Z,36.70
2019-03-25T14:20:12.249Z,36.25
2019-03-25T14:22:38.955Z,35.03
2019-03-25T14:25:05.702Z,31.12
2019-03-25T14:27:32.349Z,29.00
2019-03-25T14:29:59.101Z,32.85
2019-03-25T14:32:25.706Z,34.23
2019-03-25T14:34:52.393Z,28.47
2019-03-25T14:37:19.084Z,32.33
2019-03-25T14:39:45.734Z,40.63
2019-03-25T14:42:12.514Z,35.73
2019-03-25T14:44:39.239Z,35.80
2019-03-25T14:47:05.976Z,38.63
2019-03-25T14:49:32.690Z,40.95
2019-03-25T14:51:59.528Z,37.30
2019-03-25T14:54:26.169Z,35.90
2019-03-25T14:56:52.842Z,33.80
2019-03-25T14:59:20.443Z,38.05
2019-03-25T15:01:47.151Z,40.48
2019-03-25T15:04:13.855Z,40.65
2019-03-25T15:06:40.679Z,39.60
2019-03-25T15:09:07.527Z,40.58
2019-03-25T15:11:35.074Z,38.78
2019-03-25T15:14:02.093Z,36.03
2019-03-25T15:16:28.726Z,42.27
2019-03-25T15:18:55.352Z,35.85
2019-03-25T15:21:22.108Z,44.03
2019-03-25T15:23:48.710Z,47.73
2019-03-25T15:26:15.338Z,39.88
2019-03-25T15:28:42.010Z,40.05
2019-03-25T15:31:08.619Z,39.33
2019-03-25T15:33:35.292Z,35.45
2019-03-25T15:36:02.028Z,44.13
2019-03-25T15:38:28.655Z,44.98
2019-03-25T15:40:55.246Z,42.80
2019-03-25T15:43:22.926Z,41.35
2019-03-25T15:45:51.917Z,45.88
2019-03-25T15:48:18.207Z,39.78
2019-03-25T15:50:44.935Z,35.63
2019-03-25T15:53:11.543Z,26.95
2019-03-25T15:55:38.219Z,22.93
2019-03-25T15:58:05.027Z,19.77
2019-03-25T16:03:55.757Z,13.28
2019-03-25T16:06:22.528Z,15.95
2019-03-25T16:08:49.235Z,19.30
2019-03-25T16:11:15.934Z,14.93
2019-03-25T16:13:42.488Z,22.17
2019-03-25T16:16:09.141Z,15.15
2019-03-25T16:19:19.862Z,16.30
2019-03-25T16:21:46.576Z,13.98
2019-03-25T16:24:13.229Z,15.85
2019-03-25T16:26:39.904Z,11.90
2019-03-25T16:29:06.664Z,9.78
2019-03-25T16:31:33.354Z,12.58
2019-03-25T16:34:00.092Z,11.50
2019-03-25T16:36:26.699Z,11.95
2019-03-25T16:38:53.394Z,12.20
2019-03-25T16:41:20.157Z,9.53
2019-03-25T16:43:46.840Z,5.87
2019-03-25T16:46:13.473Z,9.65
2019-03-25T16:48:40.237Z,7.22
2019-03-25T16:51:06.827Z,7.85
2019-03-25T16:53:33.506Z,7.30
2019-03-25T16:56:00.181Z,9.05
2019-03-25T16:58:26.802Z,6.33
2019-03-25T17:00:53.443Z,6.45
2019-03-25T17:03:20.252Z,7.00
2019-03-25T17:05:46.961Z,6.47
2019-03-25T17:08:13.654Z,4.92
2019-03-25T17:10:40.375Z,7.87
2019-03-25T17:13:06.967Z,6.60
2019-03-25T17:15:33.632Z,5.67
2019-03-25T17:18:00.320Z,4.67
2019-03-25T17:20:27.057Z,7.60
2019-03-25T17:22:53.775Z,5.28
2019-03-25T17:25:20.496Z,2.87
2019-03-25T17:27:47.086Z,2.72
2019-03-25T17:30:15.149Z,3.67
2019-03-25T17:32:41.815Z,5.45
2019-03-25T17:35:08.532Z,2.90
2019-03-25T17:37:35.221Z,3.85
2019-03-25T17:40:02.028Z,5.28
2019-03-25T17:42:29.645Z,2.42
2019-03-25T17:44:56.318Z,2.80
2019-03-25T17:47:22.975Z,2.92
2019-03-25T17:49:49.612Z,2.45
2019-03-25T17:52:16.329Z,4.15
2019-03-25T17:54:43.120Z,2.30
2019-03-25T17:57:09.741Z,3.27
2019-03-25T17:59:36.396Z,2.22
2019-03-25T18:02:03.090Z,1.57
2019-03-25T18:04:29.745Z,3.67
2019-03-25T18:06:56.389Z,4.47
2019-03-25T18:09:23.109Z,5.62
2019-03-25T18:11:49.729Z,5.58
2019-03-25T18:14:16.418Z,6.28
2019-03-25T18:16:43.150Z,3.17
2019-03-25T18:19:09.750Z,4.80
2019-03-25T18:21:36.396Z,5.65
2019-03-25T18:24:03.122Z,3.58
2019-03-25T18:26:30.760Z,2.60
2019-03-25T18:28:57.386Z,3.12
2019-03-25T18:31:24.059Z,4.72
2019-03-25T18:33:50.734Z,3.67
2019-03-25T18:36:17.423Z,2.77
2019-03-25T18:38:44.111Z,3.05
2019-03-25T18:41:10.807Z,2.17
2019-03-25T18:43:37.511Z,3.33
2019-03-25T18:46:04.229Z,3.22
2019-03-25T18:48:30.808Z,4.12
2019-03-25T18:50:57.464Z,2.95
2019-03-25T18:53:24.160Z,2.87
2019-03-25T18:55:50.877Z,3.87
2019-03-25T18:58:17.605Z,3.40
2019-03-25T19:00:44.353Z,2.80
2019-03-25T19:03:10.987Z,4.28
2019-03-25T19:05:37.675Z,3.60
2019-03-25T19:08:04.765Z,2.50
2019-03-25T19:10:31.654Z,2.47
2019-03-25T19:12:58.374Z,2.87
2019-03-25T19:15:25.052Z,1.35
2019-03-25T19:17:51.747Z,1.22
2019-03-25T19:20:18.416Z,3.40
2019-03-25T19:22:45.205Z,1.02
2019-03-25T19:25:11.970Z,2.15
2019-03-25T19:27:38.651Z,1.82
2019-03-25T19:30:07.261Z,2.25
2019-03-25T19:32:33.908Z,4.08
2019-03-25T19:35:00.523Z,9.25
2019-03-25T19:37:27.235Z,11.78
2019-03-25T19:39:53.873Z,3.22
2019-03-25T19:42:20.632Z,3.80
2019-03-25T19:44:47.295Z,6.45
2019-03-25T19:47:13.912Z,7.22
2019-03-25T19:49:40.577Z,3.22
2019-03-25T19:52:09.506Z,4.95
2019-03-25T19:54:35.942Z,5.20
2019-03-25T19:57:02.663Z,5.15
2019-03-25T19:59:29.431Z,5.35
2019-03-25T20:01:56.161Z,6.45
2019-03-25T20:04:23.983Z,5.15
2019-03-25T20:06:51.657Z,6.00
2019-03-25T20:09:18.319Z,2.95
2019-03-25T20:11:45.066Z,5.00
2019-03-25T20:14:11.817Z,3.92
2019-03-25T20:16:38.542Z,4.62
2019-03-25T20:19:05.328Z,5.10
2019-03-25T20:21:32.078Z,6.10
2019-03-25T20:23:58.699Z,6.75
2019-03-25T20:26:25.494Z,8.63
2019-03-25T20:28:52.166Z,6.47
2019-03-25T20:31:18.918Z,4.83
2019-03-25T20:33:45.654Z,3.83
2019-03-25T20:36:12.360Z,4.55
2019-03-25T20:38:38.983Z,5.45
2019-03-25T20:41:05.700Z,4.35
2019-03-25T20:43:32.373Z,4.62
2019-03-25T20:45:59.101Z,5.92
2019-03-25T20:48:25.855Z,4.85
2019-03-25T20:50:52.620Z,4.17
2019-03-25T20:53:19.220Z,3.52
2019-03-25T20:55:45.939Z,4.15
2019-03-25T20:58:12.757Z,4.33
2019-03-25T21:00:51.101Z,4.37
2019-03-25T21:03:18.138Z,5.15
2019-03-25T21:05:44.887Z,5.08
2019-03-25T21:08:11.619Z,5.83
2019-03-25T21:10:39.307Z,5.78
2019-03-25T21:13:06.063Z,6.58
2019-03-25T21:15:32.767Z,6.15
2019-03-25T21:17:59.418Z,5.65
2019-03-25T21:20:26.082Z,5.15
2019-03-25T21:22:52.787Z,5.08
2019-03-25T21:25:19.520Z,4.15
2019-03-25T21:27:46.238Z,4.00
2019-03-25T21:30:12.990Z,5.67
2019-03-25T21:32:39.685Z,4.90
2019-03-25T21:35:06.673Z,8.10
2019-03-25T21:37:33.458Z,5.30
2019-03-25T21:40:00.074Z,4.92
2019-03-25T21:42:29.035Z,4.95
2019-03-25T21:44:55.313Z,3.60
2019-03-25T21:47:22.921Z,3.62
2019-03-25T21:49:49.728Z,3.08
2019-03-25T21:52:16.413Z,4.45
2019-03-25T21:54:43.058Z,4.67
2019-03-25T21:57:10.957Z,3.42
2019-03-25T21:59:37.723Z,2.87
2019-03-25T22:02:04.379Z,3.10
2019-03-25T22:04:32.073Z,3.15
2019-03-25T22:06:58.738Z,2.17
2019-03-25T22:09:25.406Z,2.27
2019-03-25T22:11:52.136Z,2.10
2019-03-25T22:14:18.745Z,2.02
2019-03-25T22:16:45.407Z,2.47
2019-03-25T22:19:12.107Z,2.95
2019-03-25T22:21:38.754Z,4.75
2019-03-25T22:24:05.381Z,4.83
2019-03-25T22:26:32.132Z,3.17
2019-03-25T22:28:58.787Z,3.35
2019-03-25T22:31:25.439Z,3.02
2019-03-25T22:33:52.129Z,3.47
2019-03-25T22:36:18.748Z,3.62
2019-03-25T22:38:45.450Z,3.90
2019-03-25T22:41:12.119Z,4.42
2019-03-25T22:43:38.829Z,3.62
2019-03-25T22:46:05.515Z,3.77
2019-03-25T22:48:32.242Z,4.08
2019-03-25T22:50:58.827Z,4.60
2019-03-25T22:53:25.487Z,7.50
2019-03-25T22:55:52.166Z,7.33
2019-03-25T22:58:18.880Z,4.65
2019-03-25T23:00:45.965Z,4.37
2019-03-25T23:03:12.687Z,4.08
2019-03-25T23:05:40.405Z,4.15
2019-03-25T23:08:07.037Z,4.05
2019-03-25T23:10:33.948Z,4.78
2019-03-25T23:13:00.538Z,4.45
2019-03-25T23:15:27.229Z,6.90
2019-03-25T23:17:53.921Z,4.75
2019-03-25T23:20:21.639Z,6.00
2019-03-25T23:22:48.328Z,6.20
2019-03-25T23:25:15.059Z,5.15
2019-03-25T23:27:42.771Z,5.00
2019-03-25T23:30:09.550Z,4.85
2019-03-25T23:32:36.240Z,3.80
2019-03-25T23:35:04.674Z,3.70
2019-03-25T23:37:31.362Z,4.10
2019-03-25T23:39:59.091Z,4.42
2019-03-25T23:42:25.771Z,4.58
2019-03-25T23:44:52.396Z,2.62
2019-03-25T23:47:19.200Z,3.02
2019-03-25T23:49:45.787Z,2.42
2019-03-25T23:52:12.474Z,3.17
2019-03-25T23:54:39.143Z,2.90
2019-03-25T23:57:05.764Z,2.50
2019-03-25T23:59:32.408Z,2.90
